sensor_id;sensor_type;location;lat;lon;timestamp;P1;durP1;ratioP1;P2;durP2;ratioP2
33453;SDS011;39400;49.744;7.012;2022-07-06T00:01:59;5.65;;;1.55;;
33453;SDS011;39400;49.744;7.012;2022-07-06T00:04:27;4.25;;;1.70;;
33453;SDS011;39400;49.744;7.012;2022-07-06T00:06:54;2.83;;;1.85;;
33453;SDS011;39400;49.744;7.012;2022-07-06T00:09:22;3.97;;;1.60;;
33453;SDS011;39400;49.744;7.012;2022-07-06T00:11:49;4.60;;;1.65;;
33453;SDS011;39400;49.744;7.012;2022-07-06T00:14:16;3.97;;;1.83;;
33453;SDS011;39400;49.744;7.012;2022-07-06T00:16:44;2.75;;;1.50;;
33453;SDS011;39400;49.744;7.012;2022-07-06T00:19:12;5.05;;;1.67;;
33453;SDS011;39400;49.744;7.012;2022-07-06T00:21:39;2.53;;;1.67;;
33453;SDS011;39400;49.744;7.012;2022-07-06T00:24:07;4.95;;;1.70;;
33453;SDS011;39400;49.744;7.012;2022-07-06T00:26:34;2.75;;;1.40;;
33453;SDS011;39400;49.744;7.012;2022-07-06T00:29:03;5.63;;;1.45;;
33453;SDS011;39400;49.744;7.012;2022-07-06T00:31:30;4.05;;;1.60;;
33453;SDS011;39400;49.744;7.012;2022-07-06T00:33:58;5.00;;;1.42;;
33453;SDS011;39400;49.744;7.012;2022-07-06T00:36:25;6.60;;;1.60;;
33453;SDS011;39400;49.744;7.012;2022-07-06T00:38:52;4.50;;;1.88;;
33453;SDS011;39400;49.744;7.012;2022-07-06T00:41:20;2.50;;;1.60;;
33453;SDS011;39400;49.744;7.012;2022-07-06T00:43:54;2.10;;;1.50;;
33453;SDS011;39400;49.744;7.012;2022-07-06T00:46:26;8.40;;;2.10;;
33453;SDS011;39400;49.744;7.012;2022-07-06T00:48:55;2.50;;;1.50;;
33453;SDS011;39400;49.744;7.012;2022-07-06T00:51:25;2.47;;;1.60;;
33453;SDS011;39400;49.744;7.012;2022-07-06T00:54:02;4.85;;;1.50;;
33453;SDS011;39400;49.744;7.012;2022-07-06T00:56:31;3.35;;;1.50;;
33453;SDS011;39400;49.744;7.012;2022-07-06T00:59:02;5.43;;;2.13;;
33453;SDS011;39400;49.744;7.012;2022-07-06T01:01:30;2.42;;;1.48;;
33453;SDS011;39400;49.744;7.012;2022-07-06T01:03:57;4.63;;;1.70;;
33453;SDS011;39400;49.744;7.012;2022-07-06T01:06:25;4.28;;;1.67;;
33453;SDS011;39400;49.744;7.012;2022-07-06T01:08:52;3.63;;;1.88;;
33453;SDS011;39400;49.744;7.012;2022-07-06T01:11:21;4.05;;;1.67;;
33453;SDS011;39400;49.744;7.012;2022-07-06T01:13:49;6.50;;;1.48;;
33453;SDS011;39400;49.744;7.012;2022-07-06T01:16:18;2.58;;;1.55;;
33453;SDS011;39400;49.744;7.012;2022-07-06T01:18:46;2.65;;;1.33;;
33453;SDS011;39400;49.744;7.012;2022-07-06T01:21:14;3.35;;;1.67;;
33453;SDS011;39400;49.744;7.012;2022-07-06T01:23:42;4.30;;;1.60;;
33453;SDS011;39400;49.744;7.012;2022-07-06T01:26:15;5.47;;;1.65;;
33453;SDS011;39400;49.744;7.012;2022-07-06T01:28:46;3.60;;;1.77;;
33453;SDS011;39400;49.744;7.012;2022-07-06T01:33:43;5.78;;;2.38;;
33453;SDS011;39400;49.744;7.012;2022-07-06T01:36:11;2.10;;;1.60;;
33453;SDS011;39400;49.744;7.012;2022-07-06T01:38:45;7.43;;;2.40;;
33453;SDS011;39400;49.744;7.012;2022-07-06T01:41:13;7.95;;;2.40;;
33453;SDS011;39400;49.744;7.012;2022-07-06T01:43:41;2.47;;;1.83;;
33453;SDS011;39400;49.744;7.012;2022-07-06T01:46:09;4.88;;;1.80;;
33453;SDS011;39400;49.744;7.012;2022-07-06T01:48:37;6.22;;;1.90;;
33453;SDS011;39400;49.744;7.012;2022-07-06T01:51:05;6.25;;;2.38;;
33453;SDS011;39400;49.744;7.012;2022-07-06T01:53:34;7.00;;;1.60;;
33453;SDS011;39400;49.744;7.012;2022-07-06T01:56:03;3.30;;;1.77;;
33453;SDS011;39400;49.744;7.012;2022-07-06T01:58:31;4.30;;;1.45;;
33453;SDS011;39400;49.744;7.012;2022-07-06T02:00:59;9.98;;;2.22;;
33453;SDS011;39400;49.744;7.012;2022-07-06T02:03:26;7.38;;;2.60;;
33453;SDS011;39400;49.744;7.012;2022-07-06T02:05:55;6.00;;;2.40;;
33453;SDS011;39400;49.744;7.012;2022-07-06T02:08:22;8.32;;;2.75;;
33453;SDS011;39400;49.744;7.012;2022-07-06T02:10:50;5.55;;;2.20;;
33453;SDS011;39400;49.744;7.012;2022-07-06T02:13:18;9.60;;;2.90;;
33453;SDS011;39400;49.744;7.012;2022-07-06T02:15:46;5.63;;;2.70;;
33453;SDS011;39400;49.744;7.012;2022-07-06T02:18:13;11.55;;;2.42;;
33453;SDS011;39400;49.744;7.012;2022-07-06T02:20:41;5.25;;;2.45;;
33453;SDS011;39400;49.744;7.012;2022-07-06T02:23:10;5.73;;;3.10;;
33453;SDS011;39400;49.744;7.012;2022-07-06T02:25:37;8.18;;;3.38;;
33453;SDS011;39400;49.744;7.012;2022-07-06T02:28:04;7.93;;;2.50;;
33453;SDS011;39400;49.744;7.012;2022-07-06T02:30:32;3.42;;;1.98;;
33453;SDS011;39400;49.744;7.012;2022-07-06T02:32:59;6.13;;;2.47;;
33453;SDS011;39400;49.744;7.012;2022-07-06T02:35:27;6.07;;;2.42;;
33453;SDS011;39400;49.744;7.012;2022-07-06T02:37:55;5.85;;;1.70;;
33453;SDS011;39400;49.744;7.012;2022-07-06T02:40:23;5.90;;;2.13;;
33453;SDS011;39400;49.744;7.012;2022-07-06T02:42:50;5.32;;;1.73;;
33453;SDS011;39400;49.744;7.012;2022-07-06T02:45:18;2.83;;;1.70;;
33453;SDS011;39400;49.744;7.012;2022-07-06T02:47:46;5.78;;;2.10;;
33453;SDS011;39400;49.744;7.012;2022-07-06T02:50:14;7.63;;;2.90;;
33453;SDS011;39400;49.744;7.012;2022-07-06T02:52:42;4.85;;;1.67;;
33453;SDS011;39400;49.744;7.012;2022-07-06T02:55:10;4.53;;;2.05;;
33453;SDS011;39400;49.744;7.012;2022-07-06T02:57:38;5.75;;;1.45;;
33453;SDS011;39400;49.744;7.012;2022-07-06T03:00:06;4.70;;;1.52;;
33453;SDS011;39400;49.744;7.012;2022-07-06T03:02:35;2.72;;;1.38;;
33453;SDS011;39400;49.744;7.012;2022-07-06T03:05:04;4.53;;;1.80;;
33453;SDS011;39400;49.744;7.012;2022-07-06T03:07:32;4.93;;;1.80;;
33453;SDS011;39400;49.744;7.012;2022-07-06T03:10:00;4.37;;;1.60;;
33453;SDS011;39400;49.744;7.012;2022-07-06T03:12:28;5.45;;;1.45;;
33453;SDS011;39400;49.744;7.012;2022-07-06T03:14:55;4.18;;;1.33;;
33453;SDS011;39400;49.744;7.012;2022-07-06T03:17:23;4.45;;;2.00;;
33453;SDS011;39400;49.744;7.012;2022-07-06T03:19:52;4.63;;;2.53;;
33453;SDS011;39400;49.744;7.012;2022-07-06T03:22:19;7.03;;;1.63;;
33453;SDS011;39400;49.744;7.012;2022-07-06T03:24:47;4.82;;;1.40;;
33453;SDS011;39400;49.744;7.012;2022-07-06T03:27:14;4.18;;;2.10;;
33453;SDS011;39400;49.744;7.012;2022-07-06T03:29:42;4.65;;;1.80;;
33453;SDS011;39400;49.744;7.012;2022-07-06T03:32:10;4.65;;;1.85;;
33453;SDS011;39400;49.744;7.012;2022-07-06T03:34:38;4.47;;;1.80;;
33453;SDS011;39400;49.744;7.012;2022-07-06T03:37:06;5.18;;;1.65;;
33453;SDS011;39400;49.744;7.012;2022-07-06T03:39:36;4.18;;;1.40;;
33453;SDS011;39400;49.744;7.012;2022-07-06T03:42:04;2.42;;;1.58;;
33453;SDS011;39400;49.744;7.012;2022-07-06T03:44:32;5.18;;;1.52;;
33453;SDS011;39400;49.744;7.012;2022-07-06T03:47:01;5.22;;;1.65;;
33453;SDS011;39400;49.744;7.012;2022-07-06T03:49:29;4.50;;;1.88;;
33453;SDS011;39400;49.744;7.012;2022-07-06T03:51:59;6.82;;;1.70;;
33453;SDS011;39400;49.744;7.012;2022-07-06T03:54:29;3.75;;;1.58;;
33453;SDS011;39400;49.744;7.012;2022-07-06T03:56:58;4.57;;;1.73;;
33453;SDS011;39400;49.744;7.012;2022-07-06T03:59:26;4.28;;;1.60;;
33453;SDS011;39400;49.744;7.012;2022-07-06T04:01:54;2.50;;;1.33;;
33453;SDS011;39400;49.744;7.012;2022-07-06T04:04:22;4.22;;;1.42;;
33453;SDS011;39400;49.744;7.012;2022-07-06T04:06:49;5.57;;;1.60;;
33453;SDS011;39400;49.744;7.012;2022-07-06T04:09:17;4.78;;;1.48;;
33453;SDS011;39400;49.744;7.012;2022-07-06T04:11:46;4.00;;;1.93;;
33453;SDS011;39400;49.744;7.012;2022-07-06T04:14:14;1.92;;;1.38;;
33453;SDS011;39400;49.744;7.012;2022-07-06T04:16:41;4.95;;;1.67;;
33453;SDS011;39400;49.744;7.012;2022-07-06T04:19:09;6.68;;;2.35;;
33453;SDS011;39400;49.744;7.012;2022-07-06T04:21:36;8.60;;;1.88;;
33453;SDS011;39400;49.744;7.012;2022-07-06T04:24:04;2.85;;;1.63;;
33453;SDS011;39400;49.744;7.012;2022-07-06T04:26:33;6.93;;;2.08;;
33453;SDS011;39400;49.744;7.012;2022-07-06T04:29:01;3.22;;;1.38;;
33453;SDS011;39400;49.744;7.012;2022-07-06T04:31:29;3.67;;;1.65;;
33453;SDS011;39400;49.744;7.012;2022-07-06T04:33:56;2.25;;;1.40;;
33453;SDS011;39400;49.744;7.012;2022-07-06T04:36:25;2.45;;;1.40;;
33453;SDS011;39400;49.744;7.012;2022-07-06T04:38:54;4.32;;;1.63;;
33453;SDS011;39400;49.744;7.012;2022-07-06T04:41:22;6.38;;;1.30;;
33453;SDS011;39400;49.744;7.012;2022-07-06T04:43:51;2.70;;;1.58;;
33453;SDS011;39400;49.744;7.012;2022-07-06T04:46:20;4.78;;;1.70;;
33453;SDS011;39400;49.744;7.012;2022-07-06T04:48:51;3.97;;;1.55;;
33453;SDS011;39400;49.744;7.012;2022-07-06T04:51:23;4.28;;;1.52;;
33453;SDS011;39400;49.744;7.012;2022-07-06T04:53:50;5.78;;;1.55;;
33453;SDS011;39400;49.744;7.012;2022-07-06T04:56:19;2.97;;;2.00;;
33453;SDS011;39400;49.744;7.012;2022-07-06T04:58:48;1.83;;;1.37;;
33453;SDS011;39400;49.744;7.012;2022-07-06T05:01:18;3.85;;;1.95;;
33453;SDS011;39400;49.744;7.012;2022-07-06T05:03:47;3.78;;;1.83;;
33453;SDS011;39400;49.744;7.012;2022-07-06T05:06:16;5.43;;;1.50;;
33453;SDS011;39400;49.744;7.012;2022-07-06T05:08:45;3.05;;;1.35;;
33453;SDS011;39400;49.744;7.012;2022-07-06T05:11:13;3.85;;;1.50;;
33453;SDS011;39400;49.744;7.012;2022-07-06T05:13:41;5.43;;;2.97;;
33453;SDS011;39400;49.744;7.012;2022-07-06T05:16:08;6.63;;;2.28;;
33453;SDS011;39400;49.744;7.012;2022-07-06T05:18:37;5.18;;;1.92;;
33453;SDS011;39400;49.744;7.012;2022-07-06T05:21:05;4.50;;;2.00;;
33453;SDS011;39400;49.744;7.012;2022-07-06T05:23:33;4.07;;;1.90;;
33453;SDS011;39400;49.744;7.012;2022-07-06T05:26:01;5.15;;;2.33;;
33453;SDS011;39400;49.744;7.012;2022-07-06T05:28:30;3.40;;;2.10;;
33453;SDS011;39400;49.744;7.012;2022-07-06T05:31:05;3.72;;;2.10;;
33453;SDS011;39400;49.744;7.012;2022-07-06T05:33:34;3.60;;;1.92;;
33453;SDS011;39400;49.744;7.012;2022-07-06T05:36:02;13.50;;;3.53;;
33453;SDS011;39400;49.744;7.012;2022-07-06T05:38:30;3.83;;;2.22;;
33453;SDS011;39400;49.744;7.012;2022-07-06T05:40:58;8.27;;;3.78;;
33453;SDS011;39400;49.744;7.012;2022-07-06T05:43:26;5.68;;;3.13;;
33453;SDS011;39400;49.744;7.012;2022-07-06T05:45:55;6.65;;;3.70;;
33453;SDS011;39400;49.744;7.012;2022-07-06T05:48:27;5.45;;;3.33;;
33453;SDS011;39400;49.744;7.012;2022-07-06T05:51:13;10.20;;;3.55;;
33453;SDS011;39400;49.744;7.012;2022-07-06T05:53:43;10.52;;;4.40;;
33453;SDS011;39400;49.744;7.012;2022-07-06T05:56:10;6.35;;;4.13;;
33453;SDS011;39400;49.744;7.012;2022-07-06T05:58:39;7.82;;;3.92;;
33453;SDS011;39400;49.744;7.012;2022-07-06T06:01:06;7.63;;;3.80;;
33453;SDS011;39400;49.744;7.012;2022-07-06T06:03:36;6.60;;;4.38;;
33453;SDS011;39400;49.744;7.012;2022-07-06T06:06:04;6.55;;;3.72;;
33453;SDS011;39400;49.744;7.012;2022-07-06T06:08:32;5.53;;;3.67;;
33453;SDS011;39400;49.744;7.012;2022-07-06T06:11:00;6.57;;;3.47;;
33453;SDS011;39400;49.744;7.012;2022-07-06T06:13:34;6.50;;;3.13;;
33453;SDS011;39400;49.744;7.012;2022-07-06T06:16:02;7.38;;;3.47;;
33453;SDS011;39400;49.744;7.012;2022-07-06T06:18:30;8.82;;;3.72;;
33453;SDS011;39400;49.744;7.012;2022-07-06T06:21:05;7.18;;;3.50;;
33453;SDS011;39400;49.744;7.012;2022-07-06T06:23:32;5.57;;;3.20;;
33453;SDS011;39400;49.744;7.012;2022-07-06T06:25:59;6.78;;;3.85;;
33453;SDS011;39400;49.744;7.012;2022-07-06T06:28:27;8.25;;;3.50;;
33453;SDS011;39400;49.744;7.012;2022-07-06T06:30:54;7.68;;;3.90;;
33453;SDS011;39400;49.744;7.012;2022-07-06T06:33:21;8.18;;;3.13;;
33453;SDS011;39400;49.744;7.012;2022-07-06T06:35:50;5.72;;;2.97;;
33453;SDS011;39400;49.744;7.012;2022-07-06T06:38:20;5.63;;;3.13;;
33453;SDS011;39400;49.744;7.012;2022-07-06T06:40:49;5.18;;;2.78;;
33453;SDS011;39400;49.744;7.012;2022-07-06T06:43:16;9.30;;;3.47;;
33453;SDS011;39400;49.744;7.012;2022-07-06T06:46:04;5.75;;;3.42;;
33453;SDS011;39400;49.744;7.012;2022-07-06T06:48:32;6.68;;;2.72;;
33453;SDS011;39400;49.744;7.012;2022-07-06T06:50:59;5.47;;;2.47;;
33453;SDS011;39400;49.744;7.012;2022-07-06T06:53:26;5.13;;;2.95;;
33453;SDS011;39400;49.744;7.012;2022-07-06T06:55:54;5.07;;;2.70;;
33453;SDS011;39400;49.744;7.012;2022-07-06T06:58:21;5.30;;;2.88;;
33453;SDS011;39400;49.744;7.012;2022-07-06T07:00:49;3.65;;;2.08;;
33453;SDS011;39400;49.744;7.012;2022-07-06T07:03:16;9.82;;;3.22;;
33453;SDS011;39400;49.744;7.012;2022-07-06T07:05:44;5.03;;;2.47;;
33453;SDS011;39400;49.744;7.012;2022-07-06T07:08:11;8.32;;;2.42;;
33453;SDS011;39400;49.744;7.012;2022-07-06T07:10:38;4.35;;;2.50;;
33453;SDS011;39400;49.744;7.012;2022-07-06T07:13:06;6.53;;;2.92;;
33453;SDS011;39400;49.744;7.012;2022-07-06T07:15:33;5.35;;;2.55;;
33453;SDS011;39400;49.744;7.012;2022-07-06T07:18:00;5.32;;;2.35;;
33453;SDS011;39400;49.744;7.012;2022-07-06T07:20:28;6.18;;;2.58;;
33453;SDS011;39400;49.744;7.012;2022-07-06T07:22:57;6.93;;;2.38;;
33453;SDS011;39400;49.744;7.012;2022-07-06T07:25:24;6.28;;;2.67;;
33453;SDS011;39400;49.744;7.012;2022-07-06T07:27:51;5.20;;;2.50;;
33453;SDS011;39400;49.744;7.012;2022-07-06T07:30:19;4.78;;;2.92;;
33453;SDS011;39400;49.744;7.012;2022-07-06T07:32:46;4.65;;;2.13;;
33453;SDS011;39400;49.744;7.012;2022-07-06T07:35:14;6.63;;;2.28;;
33453;SDS011;39400;49.744;7.012;2022-07-06T07:37:41;8.35;;;2.53;;
33453;SDS011;39400;49.744;7.012;2022-07-06T07:40:09;5.38;;;2.30;;
33453;SDS011;39400;49.744;7.012;2022-07-06T07:42:36;6.03;;;2.17;;
33453;SDS011;39400;49.744;7.012;2022-07-06T07:45:07;4.43;;;2.08;;
33453;SDS011;39400;49.744;7.012;2022-07-06T07:47:35;3.63;;;2.30;;
33453;SDS011;39400;49.744;7.012;2022-07-06T07:50:03;5.95;;;1.92;;
33453;SDS011;39400;49.744;7.012;2022-07-06T07:52:30;5.00;;;2.53;;
33453;SDS011;39400;49.744;7.012;2022-07-06T07:54:58;3.40;;;2.20;;
33453;SDS011;39400;49.744;7.012;2022-07-06T07:57:45;5.28;;;2.65;;
33453;SDS011;39400;49.744;7.012;2022-07-06T08:00:13;5.53;;;2.30;;
33453;SDS011;39400;49.744;7.012;2022-07-06T08:02:41;3.42;;;2.30;;
33453;SDS011;39400;49.744;7.012;2022-07-06T08:05:08;5.25;;;2.47;;
33453;SDS011;39400;49.744;7.012;2022-07-06T08:07:40;3.83;;;2.40;;
33453;SDS011;39400;49.744;7.012;2022-07-06T08:10:07;2.63;;;2.05;;
33453;SDS011;39400;49.744;7.012;2022-07-06T08:12:35;4.55;;;2.00;;
33453;SDS011;39400;49.744;7.012;2022-07-06T08:15:09;4.00;;;1.88;;
33453;SDS011;39400;49.744;7.012;2022-07-06T08:17:36;6.47;;;2.13;;
33453;SDS011;39400;49.744;7.012;2022-07-06T08:20:06;6.20;;;1.95;;
33453;SDS011;39400;49.744;7.012;2022-07-06T08:22:36;3.80;;;1.92;;
33453;SDS011;39400;49.744;7.012;2022-07-06T08:25:04;5.13;;;1.90;;
33453;SDS011;39400;49.744;7.012;2022-07-06T08:27:32;4.78;;;1.83;;
33453;SDS011;39400;49.744;7.012;2022-07-06T08:30:00;3.05;;;1.65;;
33453;SDS011;39400;49.744;7.012;2022-07-06T08:32:28;5.25;;;2.10;;
33453;SDS011;39400;49.744;7.012;2022-07-06T08:35:16;4.93;;;1.83;;
33453;SDS011;39400;49.744;7.012;2022-07-06T08:37:43;3.30;;;1.63;;
33453;SDS011;39400;49.744;7.012;2022-07-06T08:40:11;2.72;;;2.03;;
33453;SDS011;39400;49.744;7.012;2022-07-06T08:42:38;6.13;;;2.05;;
33453;SDS011;39400;49.744;7.012;2022-07-06T08:45:06;5.20;;;2.40;;
33453;SDS011;39400;49.744;7.012;2022-07-06T08:47:37;3.33;;;1.60;;
33453;SDS011;39400;49.744;7.012;2022-07-06T08:50:04;4.88;;;1.73;;
33453;SDS011;39400;49.744;7.012;2022-07-06T08:52:32;5.30;;;1.40;;
33453;SDS011;39400;49.744;7.012;2022-07-06T08:55:01;2.25;;;1.20;;
33453;SDS011;39400;49.744;7.012;2022-07-06T08:57:30;4.15;;;1.70;;
33453;SDS011;39400;49.744;7.012;2022-07-06T08:59:57;4.20;;;1.30;;
33453;SDS011;39400;49.744;7.012;2022-07-06T09:02:25;4.03;;;1.27;;
33453;SDS011;39400;49.744;7.012;2022-07-06T09:04:56;3.85;;;1.80;;
33453;SDS011;39400;49.744;7.012;2022-07-06T09:07:28;5.38;;;1.50;;
33453;SDS011;39400;49.744;7.012;2022-07-06T09:10:19;5.43;;;2.25;;
33453;SDS011;39400;49.744;7.012;2022-07-06T09:12:48;6.20;;;2.28;;
33453;SDS011;39400;49.744;7.012;2022-07-06T09:15:16;5.32;;;1.63;;
33453;SDS011;39400;49.744;7.012;2022-07-06T09:17:43;2.50;;;1.20;;
33453;SDS011;39400;49.744;7.012;2022-07-06T09:20:12;6.30;;;1.98;;
33453;SDS011;39400;49.744;7.012;2022-07-06T09:22:40;4.72;;;1.27;;
33453;SDS011;39400;49.744;7.012;2022-07-06T09:25:09;5.28;;;1.55;;
33453;SDS011;39400;49.744;7.012;2022-07-06T09:27:42;4.70;;;1.13;;
33453;SDS011;39400;49.744;7.012;2022-07-06T09:30:13;2.83;;;1.15;;
33453;SDS011;39400;49.744;7.012;2022-07-06T09:32:42;2.65;;;1.23;;
33453;SDS011;39400;49.744;7.012;2022-07-06T09:35:59;4.95;;;1.48;;
33453;SDS011;39400;49.744;7.012;2022-07-06T09:40:42;3.38;;;1.42;;
33453;SDS011;39400;49.744;7.012;2022-07-06T09:43:15;5.28;;;1.20;;
33453;SDS011;39400;49.744;7.012;2022-07-06T09:45:46;2.50;;;1.60;;
33453;SDS011;39400;49.744;7.012;2022-07-06T09:48:25;4.72;;;1.83;;
33453;SDS011;39400;49.744;7.012;2022-07-06T09:50:56;2.85;;;1.30;;
33453;SDS011;39400;49.744;7.012;2022-07-06T09:53:26;7.32;;;1.40;;
33453;SDS011;39400;49.744;7.012;2022-07-06T09:55:54;1.92;;;1.08;;
33453;SDS011;39400;49.744;7.012;2022-07-06T09:58:25;1.95;;;1.25;;
33453;SDS011;39400;49.744;7.012;2022-07-06T10:01:12;4.80;;;1.58;;
33453;SDS011;39400;49.744;7.012;2022-07-06T10:03:56;1.23;;;1.00;;
33453;SDS011;39400;49.744;7.012;2022-07-06T10:06:24;5.20;;;1.38;;
33453;SDS011;39400;49.744;7.012;2022-07-06T10:08:53;1.97;;;1.20;;
33453;SDS011;39400;49.744;7.012;2022-07-06T10:11:22;5.75;;;1.83;;
33453;SDS011;39400;49.744;7.012;2022-07-06T10:13:52;4.13;;;1.70;;
33453;SDS011;39400;49.744;7.012;2022-07-06T10:16:23;3.08;;;1.45;;
33453;SDS011;39400;49.744;7.012;2022-07-06T10:18:52;2.83;;;1.38;;
33453;SDS011;39400;49.744;7.012;2022-07-06T10:21:22;11.13;;;1.17;;
33453;SDS011;39400;49.744;7.012;2022-07-06T10:23:50;3.67;;;1.05;;
33453;SDS011;39400;49.744;7.012;2022-07-06T10:26:19;8.73;;;1.70;;
33453;SDS011;39400;49.744;7.012;2022-07-06T10:28:50;4.15;;;1.35;;
33453;SDS011;39400;49.744;7.012;2022-07-06T10:31:18;2.93;;;1.60;;
33453;SDS011;39400;49.744;7.012;2022-07-06T10:33:47;8.05;;;1.30;;
33453;SDS011;39400;49.744;7.012;2022-07-06T10:36:15;2.97;;;1.00;;
33453;SDS011;39400;49.744;7.012;2022-07-06T10:38:44;2.05;;;1.00;;
33453;SDS011;39400;49.744;7.012;2022-07-06T10:41:15;1.67;;;0.80;;
33453;SDS011;39400;49.744;7.012;2022-07-06T10:43:44;2.00;;;0.77;;
33453;SDS011;39400;49.744;7.012;2022-07-06T10:46:13;4.32;;;1.48;;
33453;SDS011;39400;49.744;7.012;2022-07-06T10:48:46;3.28;;;1.00;;
33453;SDS011;39400;49.744;7.012;2022-07-06T10:51:25;1.80;;;0.90;;
33453;SDS011;39400;49.744;7.012;2022-07-06T10:53:58;1.30;;;0.73;;
33453;SDS011;39400;49.744;7.012;2022-07-06T10:56:37;5.50;;;1.00;;
33453;SDS011;39400;49.744;7.012;2022-07-06T10:59:09;3.38;;;0.85;;
33453;SDS011;39400;49.744;7.012;2022-07-06T11:01:40;3.55;;;1.17;;
33453;SDS011;39400;49.744;7.012;2022-07-06T11:04:31;2.03;;;1.08;;
33453;SDS011;39400;49.744;7.012;2022-07-06T11:07:06;2.65;;;1.20;;
33453;SDS011;39400;49.744;7.012;2022-07-06T11:09:35;4.22;;;1.20;;
33453;SDS011;39400;49.744;7.012;2022-07-06T11:12:11;4.18;;;1.20;;
33453;SDS011;39400;49.744;7.012;2022-07-06T11:14:41;2.22;;;1.02;;
33453;SDS011;39400;49.744;7.012;2022-07-06T11:17:11;2.25;;;0.80;;
33453;SDS011;39400;49.744;7.012;2022-07-06T11:19:56;2.42;;;1.10;;
33453;SDS011;39400;49.744;7.012;2022-07-06T11:22:26;7.50;;;1.30;;
33453;SDS011;39400;49.744;7.012;2022-07-06T11:24:53;2.03;;;0.77;;
33453;SDS011;39400;49.744;7.012;2022-07-06T11:27:24;2.03;;;1.13;;
33453;SDS011;39400;49.744;7.012;2022-07-06T11:29:51;2.35;;;0.90;;
33453;SDS011;39400;49.744;7.012;2022-07-06T11:32:25;5.10;;;1.10;;
33453;SDS011;39400;49.744;7.012;2022-07-06T11:34:53;2.70;;;0.88;;
33453;SDS011;39400;49.744;7.012;2022-07-06T11:37:20;4.15;;;1.52;;
33453;SDS011;39400;49.744;7.012;2022-07-06T11:42:17;4.07;;;1.00;;
33453;SDS011;39400;49.744;7.012;2022-07-06T11:44:45;3.15;;;1.02;;
33453;SDS011;39400;49.744;7.012;2022-07-06T11:47:13;4.78;;;0.95;;
33453;SDS011;39400;49.744;7.012;2022-07-06T11:49:50;2.53;;;1.00;;
33453;SDS011;39400;49.744;7.012;2022-07-06T11:52:19;4.38;;;1.05;;
33453;SDS011;39400;49.744;7.012;2022-07-06T11:54:47;2.08;;;1.00;;
33453;SDS011;39400;49.744;7.012;2022-07-06T11:57:14;6.65;;;1.00;;
33453;SDS011;39400;49.744;7.012;2022-07-06T11:59:43;1.87;;;1.10;;
33453;SDS011;39400;49.744;7.012;2022-07-06T12:02:16;5.07;;;1.00;;
33453;SDS011;39400;49.744;7.012;2022-07-06T12:04:44;2.13;;;0.90;;
33453;SDS011;39400;49.744;7.012;2022-07-06T12:07:14;5.07;;;0.90;;
33453;SDS011;39400;49.744;7.012;2022-07-06T12:09:44;1.88;;;0.80;;
33453;SDS011;39400;49.744;7.012;2022-07-06T12:12:13;1.85;;;0.85;;
33453;SDS011;39400;49.744;7.012;2022-07-06T12:14:41;1.27;;;1.10;;
33453;SDS011;39400;49.744;7.012;2022-07-06T12:17:09;1.13;;;0.60;;
33453;SDS011;39400;49.744;7.012;2022-07-06T12:19:39;1.02;;;0.75;;
33453;SDS011;39400;49.744;7.012;2022-07-06T12:22:07;6.28;;;1.23;;
33453;SDS011;39400;49.744;7.012;2022-07-06T12:24:36;1.40;;;0.80;;
33453;SDS011;39400;49.744;7.012;2022-07-06T12:29:38;2.05;;;0.90;;
33453;SDS011;39400;49.744;7.012;2022-07-06T12:32:06;2.45;;;0.70;;
33453;SDS011;39400;49.744;7.012;2022-07-06T12:34:34;1.65;;;0.68;;
33453;SDS011;39400;49.744;7.012;2022-07-06T12:37:06;2.70;;;0.90;;
33453;SDS011;39400;49.744;7.012;2022-07-06T12:42:08;1.30;;;0.73;;
33453;SDS011;39400;49.744;7.012;2022-07-06T12:44:44;2.40;;;1.05;;
33453;SDS011;39400;49.744;7.012;2022-07-06T12:47:17;0.77;;;0.70;;
33453;SDS011;39400;49.744;7.012;2022-07-06T12:49:47;1.45;;;0.90;;
33453;SDS011;39400;49.744;7.012;2022-07-06T12:52:15;2.55;;;0.73;;
33453;SDS011;39400;49.744;7.012;2022-07-06T12:54:49;3.47;;;1.15;;
33453;SDS011;39400;49.744;7.012;2022-07-06T12:57:24;3.75;;;1.08;;
33453;SDS011;39400;49.744;7.012;2022-07-06T12:59:56;3.05;;;0.85;;
33453;SDS011;39400;49.744;7.012;2022-07-06T13:02:29;1.27;;;0.77;;
33453;SDS011;39400;49.744;7.012;2022-07-06T13:05:18;2.78;;;1.08;;
33453;SDS011;39400;49.744;7.012;2022-07-06T13:07:54;2.13;;;1.08;;
33453;SDS011;39400;49.744;7.012;2022-07-06T13:12:51;1.23;;;0.73;;
33453;SDS011;39400;49.744;7.012;2022-07-06T13:15:18;5.63;;;1.10;;
33453;SDS011;39400;49.744;7.012;2022-07-06T13:17:47;4.77;;;1.23;;
33453;SDS011;39400;49.744;7.012;2022-07-06T13:20:14;4.40;;;1.13;;
33453;SDS011;39400;49.744;7.012;2022-07-06T13:22:44;2.35;;;0.90;;
33453;SDS011;39400;49.744;7.012;2022-07-06T13:25:11;4.95;;;1.25;;
33453;SDS011;39400;49.744;7.012;2022-07-06T13:27:40;7.45;;;1.02;;
33453;SDS011;39400;49.744;7.012;2022-07-06T13:30:07;5.80;;;1.30;;
33453;SDS011;39400;49.744;7.012;2022-07-06T13:32:35;1.40;;;0.80;;
33453;SDS011;39400;49.744;7.012;2022-07-06T13:35:03;7.25;;;1.00;;
33453;SDS011;39400;49.744;7.012;2022-07-06T13:37:31;4.60;;;0.88;;
33453;SDS011;39400;49.744;7.012;2022-07-06T13:42:27;2.33;;;0.80;;
33453;SDS011;39400;49.744;7.012;2022-07-06T13:44:54;4.88;;;0.90;;
33453;SDS011;39400;49.744;7.012;2022-07-06T13:47:22;2.55;;;0.82;;
33453;SDS011;39400;49.744;7.012;2022-07-06T13:49:49;5.68;;;1.20;;
33453;SDS011;39400;49.744;7.012;2022-07-06T13:52:17;1.83;;;1.00;;
33453;SDS011;39400;49.744;7.012;2022-07-06T13:54:44;2.50;;;0.85;;
33453;SDS011;39400;49.744;7.012;2022-07-06T13:57:11;1.33;;;0.80;;
33453;SDS011;39400;49.744;7.012;2022-07-06T13:59:39;3.17;;;0.98;;
33453;SDS011;39400;49.744;7.012;2022-07-06T14:02:06;3.47;;;1.25;;
33453;SDS011;39400;49.744;7.012;2022-07-06T14:04:34;2.28;;;0.80;;
33453;SDS011;39400;49.744;7.012;2022-07-06T14:07:02;1.85;;;0.70;;
33453;SDS011;39400;49.744;7.012;2022-07-06T14:09:29;6.63;;;0.73;;
33453;SDS011;39400;49.744;7.012;2022-07-06T14:11:57;2.33;;;0.70;;
33453;SDS011;39400;49.744;7.012;2022-07-06T14:14:24;2.10;;;1.35;;
33453;SDS011;39400;49.744;7.012;2022-07-06T14:16:52;2.53;;;0.73;;
33453;SDS011;39400;49.744;7.012;2022-07-06T14:19:19;1.95;;;1.02;;
33453;SDS011;39400;49.744;7.012;2022-07-06T14:21:49;7.10;;;0.90;;
33453;SDS011;39400;49.744;7.012;2022-07-06T14:24:17;7.80;;;1.10;;
33453;SDS011;39400;49.744;7.012;2022-07-06T14:26:44;1.33;;;0.80;;
33453;SDS011;39400;49.744;7.012;2022-07-06T14:29:11;7.88;;;0.80;;
33453;SDS011;39400;49.744;7.012;2022-07-06T14:31:39;4.20;;;1.30;;
33453;SDS011;39400;49.744;7.012;2022-07-06T14:34:06;1.85;;;1.08;;
33453;SDS011;39400;49.744;7.012;2022-07-06T14:36:35;4.38;;;0.93;;
33453;SDS011;39400;49.744;7.012;2022-07-06T14:39:04;2.75;;;0.82;;
33453;SDS011;39400;49.744;7.012;2022-07-06T14:41:32;1.35;;;0.90;;
33453;SDS011;39400;49.744;7.012;2022-07-06T14:43:59;2.08;;;0.90;;
33453;SDS011;39400;49.744;7.012;2022-07-06T14:46:27;2.15;;;0.80;;
33453;SDS011;39400;49.744;7.012;2022-07-06T14:48:54;4.10;;;0.98;;
33453;SDS011;39400;49.744;7.012;2022-07-06T14:51:22;3.40;;;0.98;;
33453;SDS011;39400;49.744;7.012;2022-07-06T14:53:49;4.28;;;1.00;;
33453;SDS011;39400;49.744;7.012;2022-07-06T14:56:16;1.42;;;0.82;;
33453;SDS011;39400;49.744;7.012;2022-07-06T14:58:44;1.80;;;0.80;;
33453;SDS011;39400;49.744;7.012;2022-07-06T15:01:31;2.42;;;0.80;;
33453;SDS011;39400;49.744;7.012;2022-07-06T15:03:59;5.07;;;0.98;;
33453;SDS011;39400;49.744;7.012;2022-07-06T15:06:26;2.55;;;0.90;;
33453;SDS011;39400;49.744;7.012;2022-07-06T15:09:14;2.70;;;1.10;;
33453;SDS011;39400;49.744;7.012;2022-07-06T15:11:41;1.15;;;0.80;;
33453;SDS011;39400;49.744;7.012;2022-07-06T15:14:08;1.40;;;0.80;;
33453;SDS011;39400;49.744;7.012;2022-07-06T15:16:36;3.65;;;0.82;;
33453;SDS011;39400;49.744;7.012;2022-07-06T15:19:04;2.20;;;1.00;;